Time;durP1;ratioP1;P1;durP2;ratioP2;P2;SDS_P1;SDS_P2;PMS_P1;PMS_P2;Temp;Humidity;BMP_temperature;BMP_pressure;BME280_temperature;BME280_humidity;BME280_pressure;Samples;Min_cycle;Max_cycle;Signal;HPM_P1;HPM_P2
2021/09/10 00:01:25;;;;;;;14.23;12.10;;;20.10;99.90;;;;;;5049647;28;20024;-42
2021/09/10 00:03:50;;;;;;;16.38;11.90;;;20.10;99.90;;;;;;5066217;28;20393;-43
2021/09/10 00:06:16;;;;;;;17.25;12.40;;;20.00;99.90;;;;;;5068302;28;20025;-42
2021/09/10 00:08:41;;;;;;;18.75;12.23;;;20.00;99.90;;;;;;5068374;28;20037;-42
2021/09/10 00:11:07;;;;;;;18.65;11.50;;;19.90;99.90;;;;;;5056273;28;20013;-43
2021/09/10 00:13:33;;;;;;;18.45;11.73;;;20.00;99.90;;;;;;5063727;28;20067;-42
2021/09/10 00:15:58;;;;;;;13.32;11.23;;;19.90;99.90;;;;;;5068539;28;20046;-43
2021/09/10 00:18:24;;;;;;;14.02;10.60;;;19.90;99.90;;;;;;5067682;28;20040;-42
2021/09/10 00:20:50;;;;;;;13.40;10.40;;;19.90;99.90;;;;;;5067892;28;20450;-42
2021/09/10 00:23:15;;;;;;;12.55;10.20;;;19.90;99.90;;;;;;5047990;28;20040;-42
2021/09/10 00:25:41;;;;;;;12.65;10.02;;;19.90;99.90;;;;;;5064565;28;20123;-42
2021/09/10 00:28:06;;;;;;;20.15;10.98;;;19.90;99.90;;;;;;5067773;28;20020;-42
2021/09/10 00:30:31;;;;;;;14.02;10.48;;;19.90;99.90;;;;;;5054781;28;20033;-43
2021/09/10 00:32:57;;;;;;;13.57;10.98;;;19.90;99.90;;;;;;5066779;28;20020;-42
2021/09/10 00:35:22;;;;;;;17.00;12.00;;;19.90;99.90;;;;;;5066871;28;20069;-42
2021/09/10 00:37:48;;;;;;;14.35;11.15;;;19.90;99.90;;;;;;5067577;28;20041;-43
2021/09/10 00:40:14;;;;;;;15.10;11.27;;;19.90;99.90;;;;;;5066509;28;20497;-43
2021/09/10 00:42:39;;;;;;;16.48;11.32;;;19.90;99.90;;;;;;5059732;28;20021;-42
2021/09/10 00:45:05;;;;;;;12.82;10.77;;;20.00;99.90;;;;;;5068103;28;20060;-42
2021/09/10 00:47:31;;;;;;;14.02;10.68;;;20.00;99.90;;;;;;5067960;28;20081;-42
2021/09/10 00:49:57;;;;;;;13.27;10.70;;;19.90;99.90;;;;;;5052289;28;20043;-42
2021/09/10 00:52:22;;;;;;;13.07;10.48;;;19.90;99.90;;;;;;5061699;28;20410;-42
2021/09/10 00:54:48;;;;;;;12.85;9.65;;;19.90;99.90;;;;;;5050382;28;20033;-43
2021/09/10 00:57:14;;;;;;;13.07;10.48;;;19.90;99.90;;;;;;5058966;28;20017;-42
2021/09/10 00:59:40;;;;;;;12.85;10.20;;;19.90;99.90;;;;;;5068150;28;20021;-42
2021/09/10 01:02:06;;;;;;;13.50;10.18;;;20.00;99.90;;;;;;5068146;28;20039;-43
2021/09/10 01:04:31;;;;;;;11.80;9.52;;;20.00;99.90;;;;;;5068032;28;20378;-42
2021/09/10 01:06:59;;;;;;;13.40;10.45;;;20.00;99.90;;;;;;5067305;28;20024;-42
2021/09/10 01:09:26;;;;;;;12.77;9.98;;;20.00;99.90;;;;;;5055170;28;20424;-42
2021/09/10 01:11:53;;;;;;;12.93;9.95;;;20.00;99.90;;;;;;5053494;28;20112;-43
2021/09/10 01:14:19;;;;;;;11.45;10.15;;;20.00;99.90;;;;;;5060734;28;20441;-42
2021/09/10 01:16:46;;;;;;;14.35;10.32;;;19.90;99.90;;;;;;5067300;28;20082;-42
2021/09/10 01:19:30;;;;;;;12.27;9.90;;;19.90;99.90;;;;;;5067865;28;20082;-43
2021/09/10 01:21:59;;;;;;;16.38;10.82;;;19.80;99.90;;;;;;5068163;28;20277;-42
2021/09/10 01:24:27;;;;;;;10.52;9.52;;;19.70;99.90;;;;;;5068055;28;20032;-42
2021/09/10 01:26:52;;;;;;;14.20;10.60;;;19.70;99.90;;;;;;5053451;28;20097;-42
2021/09/10 01:29:18;;;;;;;10.98;9.65;;;19.70;99.90;;;;;;5059879;28;20021;-43
2021/09/10 01:31:43;;;;;;;11.70;9.95;;;19.60;99.90;;;;;;5068343;28;20047;-43
2021/09/10 01:34:09;;;;;;;10.68;9.50;;;19.50;99.90;;;;;;5068196;28;20031;-43
2021/09/10 01:36:34;;;;;;;11.55;9.75;;;19.40;99.90;;;;;;5054469;28;20032;-43
2021/09/10 01:39:00;;;;;;;11.18;9.65;;;19.40;99.90;;;;;;5070345;28;20457;-42
2021/09/10 01:41:25;;;;;;;11.95;10.07;;;19.30;99.90;;;;;;5071071;28;20116;-42
2021/09/10 01:43:51;;;;;;;11.60;9.40;;;19.20;99.90;;;;;;5071348;28;20307;-41
2021/09/10 01:46:16;;;;;;;11.60;10.15;;;19.10;99.90;;;;;;5070696;28;20032;-42
2021/09/10 01:48:42;;;;;;;11.98;10.20;;;19.00;99.90;;;;;;5069612;28;20051;-42
2021/09/10 01:51:07;;;;;;;11.73;10.07;;;18.90;99.90;;;;;;5071195;28;20108;-42
2021/09/10 01:53:33;;;;;;;11.77;10.52;;;18.90;99.90;;;;;;5071248;28;20104;-42
2021/09/10 01:55:59;;;;;;;13.23;10.65;;;18.90;99.90;;;;;;5056469;28;20025;-42
2021/09/10 01:58:24;;;;;;;13.38;11.05;;;18.80;99.90;;;;;;5062232;28;20524;-41
2021/09/10 02:00:50;;;;;;;14.38;11.27;;;18.80;99.90;;;;;;5071116;28;20507;-42
2021/09/10 02:03:16;;;;;;;15.70;12.68;;;18.80;99.90;;;;;;5070770;28;20034;-42
2021/09/10 02:05:41;;;;;;;14.73;11.75;;;18.70;99.90;;;;;;5069272;28;20040;-42
2021/09/10 02:08:07;;;;;;;15.48;11.80;;;18.70;99.90;;;;;;5061702;28;20077;-41
2021/09/10 02:10:32;;;;;;;17.23;12.35;;;18.70;99.90;;;;;;5062086;28;20017;-42
2021/09/10 02:12:58;;;;;;;14.68;11.80;;;18.60;99.90;;;;;;5059588;28;20040;-41
2021/09/10 02:15:23;;;;;;;16.35;11.90;;;18.50;99.90;;;;;;5068268;28;20024;-42
2021/09/10 02:17:49;;;;;;;15.50;11.75;;;18.50;99.90;;;;;;5057739;28;20367;-42
2021/09/10 02:20:14;;;;;;;13.38;11.38;;;18.40;99.90;;;;;;5062140;28;20028;-42
2021/09/10 02:22:40;;;;;;;19.13;12.52;;;18.30;99.90;;;;;;5070933;28;20063;-41
2021/09/10 02:25:06;;;;;;;13.45;11.45;;;18.30;99.90;;;;;;5063812;28;20057;-42
2021/09/10 02:27:32;;;;;;;13.02;11.32;;;18.30;99.90;;;;;;5052795;28;20032;-42
2021/09/10 02:29:57;;;;;;;15.95;11.77;;;18.30;99.90;;;;;;5068920;28;20111;-42
2021/09/10 02:32:23;;;;;;;18.50;12.90;;;18.20;99.90;;;;;;5061007;28;20033;-42
2021/09/10 02:34:48;;;;;;;16.83;13.88;;;18.20;99.90;;;;;;5056654;28;20036;-42
2021/09/10 02:37:15;;;;;;;19.40;14.40;;;18.20;99.90;;;;;;5069958;28;20051;-42
2021/09/10 02:39:42;;;;;;;15.38;12.80;;;18.20;99.90;;;;;;5070506;28;20709;-42
2021/09/10 02:42:07;;;;;;;18.77;13.57;;;18.20;99.90;;;;;;5069909;28;20107;-43
2021/09/10 02:44:33;;;;;;;16.30;13.52;;;18.20;99.90;;;;;;5070067;28;20116;-42
2021/09/10 02:46:58;;;;;;;14.52;13.02;;;18.20;99.90;;;;;;5067963;28;20025;-41
2021/09/10 02:49:25;;;;;;;14.27;12.13;;;18.20;99.90;;;;;;5070202;28;20107;-45
2021/09/10 02:51:50;;;;;;;15.40;11.85;;;18.10;99.90;;;;;;5068688;28;20032;-44
2021/09/10 02:54:16;;;;;;;14.75;12.18;;;18.10;99.90;;;;;;5069915;28;20078;-42
2021/09/10 02:56:41;;;;;;;15.60;12.77;;;18.10;99.90;;;;;;5069100;28;20100;-42
2021/09/10 02:59:07;;;;;;;14.05;12.32;;;18.10;99.90;;;;;;5060569;28;20017;-41
2021/09/10 03:01:32;;;;;;;17.50;13.15;;;18.00;99.90;;;;;;5064854;28;20107;-41
2021/09/10 03:03:58;;;;;;;15.95;12.80;;;18.00;99.90;;;;;;5069777;28;20029;-40
2021/09/10 03:06:44;;;;;;;15.15;12.50;;;18.00;99.90;;;;;;5069004;28;20033;-40
2021/09/10 03:09:09;;;;;;;15.95;12.45;;;18.10;99.90;;;;;;5030155;28;20125;-41
2021/09/10 03:11:35;;;;;;;15.05;11.95;;;18.10;99.90;;;;;;5046723;28;20615;-40
2021/09/10 03:14:00;;;;;;;14.68;12.15;;;18.10;99.90;;;;;;5058162;28;20581;-40
2021/09/10 03:16:26;;;;;;;14.07;11.23;;;18.20;99.90;;;;;;5069119;28;20036;-40
2021/09/10 03:18:52;;;;;;;14.30;11.63;;;18.20;99.90;;;;;;5068433;28;20115;-41
2021/09/10 03:21:17;;;;;;;13.75;10.90;;;18.30;99.90;;;;;;5069713;28;20032;-41
2021/09/10 03:23:43;;;;;;;16.27;11.18;;;18.30;99.90;;;;;;5069927;28;20058;-40
2021/09/10 03:26:08;;;;;;;13.30;11.07;;;18.20;99.90;;;;;;5056933;28;20032;-43
2021/09/10 03:28:34;;;;;;;12.38;10.55;;;18.20;99.90;;;;;;5052962;28;20030;-43
2021/09/10 03:30:59;;;;;;;14.10;10.95;;;18.20;99.90;;;;;;5068091;28;20025;-43
2021/09/10 03:33:25;;;;;;;11.85;9.88;;;18.20;99.90;;;;;;5059526;28;20466;-43
2021/09/10 03:35:50;;;;;;;12.38;10.43;;;18.10;99.90;;;;;;5055641;28;20025;-43
2021/09/10 03:38:16;;;;;;;16.75;10.85;;;18.10;99.90;;;;;;5068414;28;20090;-44
2021/09/10 03:40:41;;;;;;;13.18;10.15;;;18.20;99.90;;;;;;5053447;28;20060;-43
2021/09/10 03:43:08;;;;;;;12.98;9.85;;;18.20;99.90;;;;;;5067483;28;20032;-44
2021/09/10 03:45:34;;;;;;;15.32;10.90;;;18.30;99.90;;;;;;5062370;28;20032;-41
2021/09/10 03:48:00;;;;;;;13.65;10.50;;;18.40;99.90;;;;;;5057616;28;20036;-40
2021/09/10 03:50:26;;;;;;;13.50;10.02;;;18.50;99.90;;;;;;5067190;28;20021;-43
2021/09/10 03:52:52;;;;;;;11.32;10.00;;;18.50;99.90;;;;;;5068861;28;20103;-43
2021/09/10 03:55:17;;;;;;;13.05;9.52;;;18.50;99.90;;;;;;5068267;28;20399;-43
2021/09/10 03:57:43;;;;;;;11.50;9.98;;;18.60;99.90;;;;;;5063963;28;20025;-44
2021/09/10 04:00:09;;;;;;;14.48;9.98;;;18.60;99.90;;;;;;5060448;28;20025;-43
2021/09/10 04:02:35;;;;;;;12.38;9.95;;;18.60;99.90;;;;;;5064838;28;20029;-41
2021/09/10 04:05:00;;;;;;;14.35;10.27;;;18.70;99.90;;;;;;5060308;28;20040;-41
2021/09/10 04:07:26;;;;;;;12.18;9.68;;;18.80;99.90;;;;;;5068181;28;20019;-42
2021/09/10 04:09:51;;;;;;;13.57;10.38;;;18.80;99.90;;;;;;5060588;28;20052;-42
2021/09/10 04:12:17;;;;;;;12.15;9.93;;;18.80;99.90;;;;;;5061612;28;20083;-43
2021/09/10 04:14:42;;;;;;;12.25;9.15;;;18.90;99.90;;;;;;5067304;28;20362;-42
2021/09/10 04:17:09;;;;;;;13.82;10.45;;;18.90;99.90;;;;;;5067846;28;20028;-41
2021/09/10 04:19:34;;;;;;;14.93;10.50;;;19.00;99.90;;;;;;5068466;28;20644;-42
2021/09/10 04:22:00;;;;;;;14.48;10.40;;;19.00;99.90;;;;;;5068787;28;20033;-46
2021/09/10 04:24:25;;;;;;;13.25;9.48;;;19.10;99.90;;;;;;5068178;28;20024;-47
2021/09/10 04:26:52;;;;;;;11.98;10.35;;;19.10;99.90;;;;;;5043807;28;20496;-45
2021/09/10 04:29:18;;;;;;;13.75;9.85;;;19.20;99.90;;;;;;5060082;28;20017;-46
2021/09/10 04:31:43;;;;;;;15.88;10.30;;;19.20;99.90;;;;;;5067323;28;20059;-45
2021/09/10 04:34:09;;;;;;;13.13;10.80;;;19.30;99.90;;;;;;5055138;28;20021;-46
2021/09/10 04:36:34;;;;;;;14.50;10.80;;;19.30;99.90;;;;;;5059422;28;20123;-45
2021/09/10 04:39:00;;;;;;;17.13;11.88;;;19.30;99.90;;;;;;5067077;28;20086;-47
2021/09/10 04:41:25;;;;;;;17.08;11.32;;;19.30;99.90;;;;;;5058421;28;20025;-46
2021/09/10 04:43:51;;;;;;;15.25;11.23;;;19.20;99.90;;;;;;5059914;28;20036;-45
2021/09/10 04:46:16;;;;;;;18.70;13.13;;;19.10;99.90;;;;;;5057745;28;20026;-45
2021/09/10 04:48:42;;;;;;;15.00;12.82;;;19.00;99.90;;;;;;5050402;28;20017;-46
2021/09/10 04:51:07;;;;;;;15.68;12.80;;;19.00;99.90;;;;;;5068618;28;20028;-46
2021/09/10 04:53:33;;;;;;;15.45;13.45;;;19.00;99.90;;;;;;5067434;28;20356;-48
2021/09/10 04:55:58;;;;;;;16.25;12.75;;;19.00;99.90;;;;;;5039894;28;20111;-46
2021/09/10 04:58:25;;;;;;;17.80;13.38;;;19.00;99.90;;;;;;5045330;28;20020;-46
2021/09/10 05:00:50;;;;;;;19.92;13.80;;;18.90;99.90;;;;;;5049013;28;20030;-46
2021/09/10 05:03:16;;;;;;;20.42;14.02;;;18.90;99.90;;;;;;5038863;28;20033;-46
2021/09/10 05:05:41;;;;;;;20.27;13.20;;;18.90;99.90;;;;;;5040051;28;20033;-46
2021/09/10 05:08:07;;;;;;;18.63;13.13;;;18.90;99.90;;;;;;5047642;28;20371;-46
2021/09/10 05:10:33;;;;;;;16.77;13.27;;;18.90;99.90;;;;;;5049418;28;20020;-47
2021/09/10 05:12:58;;;;;;;20.77;14.35;;;18.90;99.90;;;;;;5059274;28;20511;-45
2021/09/10 05:15:23;;;;;;;17.92;13.07;;;18.90;99.90;;;;;;5047055;28;20083;-49
2021/09/10 05:17:49;;;;;;;18.33;14.30;;;18.90;99.90;;;;;;5047737;28;20036;-46
2021/09/10 05:20:14;;;;;;;19.48;14.35;;;18.90;99.90;;;;;;5047436;28;20032;-46
2021/09/10 05:22:41;;;;;;;17.77;14.13;;;18.90;99.90;;;;;;5051332;28;20025;-48
2021/09/10 05:25:07;;;;;;;16.80;11.95;;;19.00;99.90;;;;;;5041191;28;20025;-48
2021/09/10 05:27:33;;;;;;;16.35;13.32;;;19.00;99.90;;;;;;5042302;28;20017;-49
2021/09/10 05:29:59;;;;;;;16.38;12.45;;;19.10;99.90;;;;;;5043501;28;20034;-46
2021/09/10 05:32:25;;;;;;;19.27;13.02;;;19.10;99.90;;;;;;5052241;28;20021;-46
2021/09/10 05:34:50;;;;;;;18.73;12.75;;;19.10;99.90;;;;;;5041982;28;20095;-46
2021/09/10 05:37:16;;;;;;;17.98;12.93;;;19.20;99.90;;;;;;5050173;28;20013;-49
2021/09/10 05:39:41;;;;;;;23.10;12.38;;;19.20;99.90;;;;;;5052237;28;20379;-48
2021/09/10 05:42:07;;;;;;;15.57;12.57;;;19.30;99.90;;;;;;5045952;28;20022;-47
2021/09/10 05:44:33;;;;;;;17.52;13.00;;;19.40;99.90;;;;;;5049653;28;20029;-46
2021/09/10 05:46:58;;;;;;;19.35;13.15;;;19.40;99.90;;;;;;5045516;28;20068;-47
2021/09/10 05:49:24;;;;;;;15.55;12.20;;;19.40;99.90;;;;;;5055695;28;20028;-49
2021/09/10 05:51:50;;;;;;;18.48;12.00;;;19.50;99.90;;;;;;5038969;28;21447;-47
2021/09/10 05:54:16;;;;;;;15.02;11.32;;;19.50;99.90;;;;;;5055813;28;20079;-46
2021/09/10 05:56:41;;;;;;;15.55;11.15;;;19.50;99.90;;;;;;5055907;28;20029;-47
2021/09/10 05:59:07;;;;;;;15.50;11.80;;;19.70;99.90;;;;;;5047674;28;20032;-46
2021/09/10 06:01:32;;;;;;;14.55;11.20;;;19.70;99.90;;;;;;5057365;28;20540;-46
2021/09/10 06:03:58;;;;;;;15.13;10.18;;;19.80;99.90;;;;;;5052485;28;20107;-47
2021/09/10 06:06:23;;;;;;;14.98;10.52;;;19.70;99.90;;;;;;5051635;28;20405;-48
2021/09/10 06:08:49;;;;;;;23.77;11.60;;;19.60;99.90;;;;;;5052832;28;20474;-51
2021/09/10 06:11:14;;;;;;;22.33;11.43;;;19.40;99.90;;;;;;5054487;28;20029;-51
2021/09/10 06:13:40;;;;;;;19.00;10.23;;;19.20;99.90;;;;;;5051708;28;20047;-50
2021/09/10 06:16:06;;;;;;;16.83;10.93;;;19.00;99.90;;;;;;5052169;28;20113;-51
2021/09/10 06:18:32;;;;;;;15.45;10.82;;;18.90;99.90;;;;;;5048437;28;20048;-50
2021/09/10 06:21:00;;;;;;;16.23;10.95;;;18.90;99.90;;;;;;5056097;28;20395;-49
2021/09/10 06:23:26;;;;;;;16.85;11.52;;;18.80;99.90;;;;;;5042520;28;20021;-50
2021/09/10 06:25:51;;;;;;;26.23;12.60;;;18.80;99.90;;;;;;5037639;28;20041;-50
2021/09/10 06:28:17;;;;;;;15.25;11.95;;;18.80;99.90;;;;;;5031772;28;20505;-48
2021/09/10 06:30:42;;;;;;;16.70;12.82;;;18.90;99.90;;;;;;5047088;28;20023;-48
2021/09/10 06:33:08;;;;;;;18.00;12.45;;;18.90;99.90;;;;;;5051258;28;20033;-49
2021/09/10 06:35:53;;;;;;;16.80;12.20;;;18.90;99.90;;;;;;5043885;28;20041;-50
2021/09/10 06:38:19;;;;;;;20.98;12.13;;;18.80;99.90;;;;;;5050619;28;20086;-48
2021/09/10 06:40:44;;;;;;;15.73;11.73;;;18.80;99.90;;;;;;5061031;28;20041;-47
2021/09/10 06:43:10;;;;;;;16.50;11.98;;;18.80;99.90;;;;;;5048541;28;20070;-48
2021/09/10 06:45:35;;;;;;;18.05;12.32;;;18.80;99.90;;;;;;5050925;28;20036;-47
2021/09/10 06:48:01;;;;;;;18.83;13.02;;;18.90;99.90;;;;;;5039274;28;20044;-47
2021/09/10 06:50:27;;;;;;;14.90;11.52;;;18.90;99.90;;;;;;5058464;28;20025;-49
2021/09/10 06:52:52;;;;;;;19.45;13.30;;;19.10;99.90;;;;;;5057001;28;20025;-47
2021/09/10 06:55:18;;;;;;;23.92;13.85;;;19.20;99.90;;;;;;5070073;28;20056;-49
2021/09/10 06:57:43;;;;;;;20.40;15.18;;;19.20;99.90;;;;;;5059453;28;20021;-48
2021/09/10 07:00:09;;;;;;;21.15;14.82;;;19.20;99.90;;;;;;5069375;28;20025;-49
2021/09/10 07:02:35;;;;;;;25.85;16.23;;;19.30;99.90;;;;;;5068259;28;20508;-48
2021/09/10 07:05:00;;;;;;;24.35;15.32;;;19.30;99.90;;;;;;5068183;28;20020;-47
2021/09/10 07:07:26;;;;;;;22.60;16.15;;;19.40;99.90;;;;;;5059298;28;20284;-47
2021/09/10 07:09:51;;;;;;;24.92;15.75;;;19.40;99.90;;;;;;5045398;28;20426;-47
2021/09/10 07:12:18;;;;;;;26.00;15.57;;;19.40;99.90;;;;;;5047913;28;20032;-47
2021/09/10 07:14:44;;;;;;;19.15;15.25;;;19.50;99.90;;;;;;5048050;28;20397;-47
2021/09/10 07:17:09;;;;;;;22.67;15.45;;;19.60;99.90;;;;;;5047912;28;20024;-47
2021/09/10 07:19:35;;;;;;;20.13;14.68;;;19.60;99.90;;;;;;5049772;28;20031;-47
2021/09/10 07:22:00;;;;;;;21.38;15.65;;;19.70;99.90;;;;;;5037498;28;20407;-47
2021/09/10 07:24:26;;;;;;;22.65;15.15;;;19.70;99.90;;;;;;5029460;28;20043;-47
2021/09/10 07:26:52;;;;;;;23.45;16.55;;;19.70;99.90;;;;;;5040734;28;20037;-47
2021/09/10 07:29:20;;;;;;;27.58;16.77;;;19.60;99.90;;;;;;5037919;28;20031;-47
2021/09/10 07:31:46;;;;;;;23.75;17.58;;;19.60;99.90;;;;;;5041657;28;20079;-49
2021/09/10 07:34:12;;;;;;;26.95;18.90;;;19.50;99.90;;;;;;5041635;28;20100;-49
2021/09/10 07:36:37;;;;;;;26.35;20.20;;;19.50;99.90;;;;;;5033495;28;20100;-48
2021/09/10 07:39:03;;;;;;;28.95;20.58;;;19.50;99.90;;;;;;5039240;28;20494;-49
2021/09/10 07:41:28;;;;;;;32.85;22.55;;;19.60;99.90;;;;;;5043310;28;20099;-47
2021/09/10 07:43:54;;;;;;;34.03;23.08;;;19.60;99.90;;;;;;5036940;28;20479;-48
2021/09/10 07:46:19;;;;;;;30.70;22.80;;;19.70;99.90;;;;;;5040721;28;20455;-47
2021/09/10 07:48:45;;;;;;;33.92;22.50;;;19.80;99.90;;;;;;5041666;28;20033;-48
2021/09/10 07:51:10;;;;;;;30.90;23.23;;;19.90;99.90;;;;;;5049822;28;20670;-48
2021/09/10 07:53:36;;;;;;;28.30;21.15;;;20.10;99.90;;;;;;5048904;28;20107;-47
2021/09/10 07:56:02;;;;;;;29.50;20.95;;;20.20;99.90;;;;;;5048181;28;20035;-47
2021/09/10 07:58:27;;;;;;;26.52;19.80;;;20.50;99.90;;;;;;5050391;28;20055;-49
2021/09/10 08:00:53;;;;;;;21.50;17.73;;;20.60;99.90;;;;;;5067035;28;20085;-50
2021/09/10 08:03:18;;;;;;;26.40;17.15;;;20.90;99.90;;;;;;5069269;28;20070;-51
2021/09/10 08:05:44;;;;;;;19.38;15.98;;;20.90;99.90;;;;;;5069185;28;20024;-48
2021/09/10 08:08:09;;;;;;;21.73;16.27;;;20.80;99.90;;;;;;5067920;28;20028;-50
2021/09/10 08:10:35;;;;;;;24.63;16.65;;;20.80;99.90;;;;;;5068118;28;20433;-48
2021/09/10 08:13:00;;;;;;;26.70;16.88;;;20.70;99.90;;;;;;5053237;28;20033;-49
2021/09/10 08:15:26;;;;;;;25.10;17.42;;;20.60;99.90;;;;;;5051739;28;20071;-48
2021/09/10 08:17:52;;;;;;;19.38;16.35;;;20.50;99.90;;;;;;5048440;28;20107;-48
2021/09/10 08:20:17;;;;;;;26.73;17.63;;;20.50;99.90;;;;;;5048551;28;20081;-49
2021/09/10 08:22:43;;;;;;;27.17;17.73;;;20.50;99.90;;;;;;5047287;28;20033;-48
2021/09/10 08:25:10;;;;;;;24.08;16.25;;;20.60;99.90;;;;;;5048416;28;20103;-48
2021/09/10 08:27:37;;;;;;;22.30;16.52;;;20.70;99.90;;;;;;5054662;28;20119;-48
2021/09/10 08:30:04;;;;;;;19.60;16.35;;;20.80;99.90;;;;;;5049006;28;20025;-47
2021/09/10 08:32:30;;;;;;;21.33;16.08;;;20.90;99.90;;;;;;5046794;28;20025;-51
2021/09/10 08:34:55;;;;;;;17.67;14.55;;;21.10;99.90;;;;;;5052137;28;20025;-48
2021/09/10 08:37:21;;;;;;;20.77;14.68;;;21.20;99.90;;;;;;5046810;28;20025;-48
2021/09/10 08:39:46;;;;;;;23.67;15.77;;;21.20;99.90;;;;;;5042647;28;20360;-48
2021/09/10 08:42:12;;;;;;;18.73;15.57;;;21.10;99.90;;;;;;5059981;28;20032;-48
2021/09/10 08:44:40;;;;;;;20.58;15.95;;;21.20;99.90;;;;;;5068378;28;20096;-48
2021/09/10 08:47:05;;;;;;;17.17;15.00;;;21.00;99.90;;;;;;5068630;28;20389;-47
2021/09/10 08:49:33;;;;;;;20.02;15.23;;;20.90;99.90;;;;;;5054066;28;20475;-49
2021/09/10 08:51:58;;;;;;;22.30;16.02;;;20.80;99.90;;;;;;5047312;28;20021;-48
2021/09/10 08:54:24;;;;;;;20.08;15.73;;;20.70;99.90;;;;;;5048561;28;20419;-47
2021/09/10 08:56:49;;;;;;;22.67;17.35;;;20.70;99.90;;;;;;5048344;28;20479;-48
2021/09/10 08:59:20;;;;;;;22.02;16.30;;;20.60;99.90;;;;;;5048644;28;20021;-48
2021/09/10 09:01:47;;;;;;;20.95;17.10;;;20.50;99.90;;;;;;5047952;28;20020;-48
2021/09/10 09:04:13;;;;;;;25.42;17.13;;;20.50;99.90;;;;;;5060605;28;20494;-48
2021/09/10 09:06:38;;;;;;;21.15;18.23;;;20.50;99.90;;;;;;5057538;28;20048;-48
2021/09/10 09:09:04;;;;;;;26.33;18.58;;;20.40;99.90;;;;;;5044791;28;20033;-47
2021/09/10 09:11:29;;;;;;;20.10;16.77;;;20.50;99.90;;;;;;5041357;28;20027;-48
2021/09/10 09:13:56;;;;;;;24.05;18.08;;;20.60;99.90;;;;;;5068050;28;20062;-48
2021/09/10 09:16:30;;;;;;;29.13;19.88;;;20.70;99.90;;;;;;5066248;28;20025;-47
2021/09/10 09:19:01;;;;;;;28.42;18.88;;;20.70;99.90;;;;;;5069041;28;20024;-48
2021/09/10 09:21:32;;;;;;;24.13;19.13;;;20.90;99.90;;;;;;5069742;28;20024;-48
2021/09/10 09:24:15;;;;;;;21.48;16.42;;;21.20;99.90;;;;;;5069834;28;20016;-48
2021/09/10 09:26:42;;;;;;;22.67;16.70;;;21.40;99.90;;;;;;5063935;28;20036;-50
2021/09/10 09:29:14;;;;;;;20.52;17.05;;;21.60;99.90;;;;;;5039881;28;20021;-48
2021/09/10 09:31:41;;;;;;;19.40;16.58;;;21.60;99.90;;;;;;5025184;28;20886;-47
2021/09/10 09:34:07;;;;;;;17.65;14.57;;;21.90;99.90;;;;;;5055217;28;20024;-49
2021/09/10 09:36:34;;;;;;;19.58;14.35;;;22.50;99.90;;;;;;5057283;28;20386;-48
2021/09/10 09:39:09;;;;;;;18.02;12.52;;;23.10;99.90;;;;;;5052782;28;20044;-48
2021/09/10 09:41:43;;;;;;;15.10;11.82;;;23.60;99.90;;;;;;5049590;28;20050;-48
2021/09/10 09:44:13;;;;;;;12.88;10.55;;;24.20;99.90;;;;;;5033376;28;20021;-46
2021/09/10 09:46:41;;;;;;;14.05;10.05;;;24.70;99.90;;;;;;5046632;28;20390;-49
2021/09/10 09:49:09;;;;;;;10.02;8.98;;;24.60;99.90;;;;;;5047950;28;20025;-46
2021/09/10 09:51:34;;;;;;;10.35;9.32;;;25.40;99.90;;;;;;5051301;28;20075;-47
2021/09/10 09:54:00;;;;;;;9.93;8.30;;;26.50;99.90;;;;;;5050949;28;20275;-46
2021/09/10 09:56:27;;;;;;;8.63;7.72;;;27.70;99.90;;;;;;5050605;28;20036;-46
2021/09/10 09:58:54;;;;;;;9.70;7.68;;;28.60;99.90;;;;;;5049099;28;20472;-46
2021/09/10 10:01:20;;;;;;;9.07;7.68;;;29.00;99.90;;;;;;5065269;28;20025;-46
2021/09/10 10:03:45;;;;;;;8.90;8.07;;;29.70;99.90;;;;;;5050936;28;20110;-46
2021/09/10 10:06:16;;;;;;;9.10;8.20;;;29.50;99.90;;;;;;5047070;28;20036;-45
2021/09/10 10:09:03;;;;;;;8.13;7.32;;;30.50;99.90;;;;;;5054997;28;20021;-46
2021/09/10 10:11:38;;;;;;;8.77;7.85;;;30.70;98.90;;;;;;5028647;28;20112;-45
2021/09/10 10:14:06;;;;;;;9.60;8.30;;;30.00;98.80;;;;;;5030621;28;20033;-45
2021/09/10 10:16:35;;;;;;;10.27;8.85;;;28.90;99.50;;;;;;5030419;28;20025;-47
2021/09/10 10:19:02;;;;;;;12.50;10.15;;;28.30;99.90;;;;;;5030506;28;20025;-47
2021/09/10 10:21:55;;;;;;;13.00;8.95;;;28.30;99.90;;;;;;5029723;28;20113;-46
2021/09/10 10:24:40;;;;;;;9.50;8.50;;;28.60;99.90;;;;;;5049134;28;20099;-46
2021/09/10 10:27:46;;;;;;;13.07;9.75;;;28.60;99.90;;;;;;5049840;28;20029;-45
2021/09/10 10:30:14;;;;;;;11.23;10.02;;;28.00;99.90;;;;;;5062061;28;20426;-45
2021/09/10 10:32:51;;;;;;;10.82;9.65;;;28.00;99.90;;;;;;5054021;28;20398;-46
2021/09/10 10:35:22;;;;;;;14.00;10.30;;;28.90;99.90;;;;;;5050082;28;20029;-46
2021/09/10 10:37:51;;;;;;;12.15;9.95;;;29.90;99.90;;;;;;5049420;28;20059;-47
2021/09/10 10:40:23;;;;;;;12.13;9.02;;;31.10;96.30;;;;;;5039965;28;20021;-48
2021/09/10 10:42:50;;;;;;;12.82;10.60;;;32.20;95.80;;;;;;5051577;28;20496;-46
2021/09/10 10:45:16;;;;;;;12.15;9.25;;;32.70;90.30;;;;;;5048671;28;20123;-46
2021/09/10 10:47:41;;;;;;;10.57;9.48;;;33.40;90.20;;;;;;5047372;28;20155;-46
2021/09/10 10:50:35;;;;;;;12.30;8.63;;;34.00;84.10;;;;;;5051294;28;20485;-46
2021/09/10 10:53:01;;;;;;;10.13;8.40;;;34.70;81.10;;;;;;5058788;28;20075;-46
2021/09/10 10:55:35;;;;;;;10.70;9.52;;;33.90;80.20;;;;;;5070079;28;20048;-46
2021/09/10 10:58:24;;;;;;;10.23;9.32;;;32.60;79.50;;;;;;5054366;28;20515;-46
2021/09/10 11:01:01;;;;;;;12.45;9.77;;;31.20;86.00;;;;;;5045250;28;20025;-48
2021/09/10 11:03:26;;;;;;;12.73;11.27;;;30.10;90.60;;;;;;5038746;28;20065;-46
2021/09/10 11:05:54;;;;;;;12.30;10.55;;;29.50;91.50;;;;;;5044391;28;20057;-48
2021/09/10 11:08:42;;;;;;;10.25;9.25;;;30.30;91.60;;;;;;5060242;28;20017;-50
2021/09/10 11:11:08;;;;;;;10.23;9.23;;;31.30;90.50;;;;;;5061938;28;20044;-47
2021/09/10 11:13:54;;;;;;;11.32;8.88;;;31.70;86.80;;;;;;5054510;28;20043;-47
2021/09/10 11:16:27;;;;;;;9.48;8.00;;;31.60;87.30;;;;;;5045493;28;20087;-47
2021/09/10 11:18:53;;;;;;;9.15;7.85;;;31.80;83.50;;;;;;5028164;28;20029;-48
2021/09/10 11:21:26;;;;;;;9.05;7.53;;;31.90;82.10;;;;;;5035807;28;20376;-47
2021/09/10 11:23:52;;;;;;;8.75;7.95;;;31.80;84.30;;;;;;5042798;28;20037;-48
2021/09/10 11:26:18;;;;;;;8.75;7.95;;;31.90;82.80;;;;;;5048177;28;20032;-47
2021/09/10 11:28:43;;;;;;;11.65;8.93;;;32.30;84.70;;;;;;5060191;28;20017;-47
2021/09/10 11:31:09;;;;;;;8.73;7.00;;;33.10;79.50;;;;;;5053597;28;20064;-47
2021/09/10 11:33:40;;;;;;;10.05;8.82;;;33.70;82.40;;;;;;5040883;28;20025;-47
2021/09/10 11:36:06;;;;;;;11.60;7.22;;;33.50;77.60;;;;;;5058655;28;20368;-47
2021/09/10 11:38:31;;;;;;;8.70;6.60;;;33.70;77.40;;;;;;5053740;28;20033;-46
2021/09/10 11:41:00;;;;;;;8.70;6.75;;;33.20;78.30;;;;;;5047850;28;20028;-47
2021/09/10 11:43:29;;;;;;;7.75;6.65;;;32.90;78.40;;;;;;5057258;28;20111;-47
2021/09/10 11:46:11;;;;;;;9.30;6.38;;;32.80;79.10;;;;;;5066198;28;20019;-48
2021/09/10 11:48:48;;;;;;;11.18;7.90;;;32.60;77.90;;;;;;5063519;28;20102;-47
2021/09/10 11:51:15;;;;;;;6.57;5.95;;;32.00;79.90;;;;;;5043496;28;20021;-47
2021/09/10 11:53:46;;;;;;;8.65;6.75;;;32.60;80.10;;;;;;5043772;28;20057;-48
2021/09/10 11:56:14;;;;;;;6.85;6.18;;;32.80;76.80;;;;;;5047626;28;20438;-47
2021/09/10 11:58:50;;;;;;;11.88;7.72;;;32.10;78.80;;;;;;5053206;28;20020;-47
2021/09/10 12:01:26;;;;;;;9.90;7.25;;;31.30;80.60;;;;;;5027161;28;20025;-48
2021/09/10 12:03:55;;;;;;;7.78;7.03;;;30.40;83.70;;;;;;5054401;28;20502;-47
2021/09/10 12:06:24;;;;;;;8.05;7.25;;;29.40;86.70;;;;;;5058952;28;20084;-47
2021/09/10 12:09:11;;;;;;;11.65;7.55;;;28.50;90.10;;;;;;5052321;28;20025;-47
2021/09/10 12:11:55;;;;;;;11.05;7.75;;;27.70;90.90;;;;;;5040925;28;20021;-47
2021/09/10 12:14:37;;;;;;;11.23;7.68;;;26.80;93.70;;;;;;5049743;28;20028;-47
2021/09/10 12:17:06;;;;;;;8.18;7.38;;;26.20;95.40;;;;;;5063840;28;20035;-47
2021/09/10 12:19:32;;;;;;;13.27;8.75;;;25.80;96.50;;;;;;5050305;28;20604;-47
2021/09/10 12:21:58;;;;;;;12.23;8.00;;;25.50;97.70;;;;;;5065956;28;20107;-50
2021/09/10 12:24:23;;;;;;;9.52;7.72;;;25.10;98.80;;;;;;5056053;28;20025;-47
2021/09/10 12:26:53;;;;;;;9.50;8.50;;;25.00;99.90;;;;;;5063910;28;20036;-48
2021/09/10 12:29:25;;;;;;;;;;;24.70;99.90;;;;;;5052222;28;20108;-46
2021/09/10 12:31:52;;;;;;;11.55;8.02;;;24.50;99.90;;;;;;5059714;28;19941;-46